Time;durP1;ratioP1;P1;durP2;ratioP2;P2;SDS_P1;SDS_P2;PMS_P1;PMS_P2;Temp;Humidity;BMP_temperature;BMP_pressure;BME280_temperature;BME280_humidity;BME280_pressure;Samples;Min_cycle;Max_cycle;Signal;HPM_P1;HPM_P2
2022/01/10 00:00:09;;;;;;;7.23;5.17;;;3.90;99.90;3.70;99742.00;;;;4976438;27;88982;-77
2022/01/10 00:02:35;;;;;;;7.87;4.70;;;3.90;99.90;3.70;99734.00;;;;4995563;27;88310;-73
2022/01/10 00:05:00;;;;;;;10.20;5.60;;;3.90;99.90;3.70;99734.00;;;;4994317;27;116963;-73
2022/01/10 00:07:26;;;;;;;8.10;5.43;;;3.80;99.90;3.70;99738.00;;;;4994574;28;88190;-74
2022/01/10 00:09:52;;;;;;;9.73;4.77;;;3.90;99.90;3.70;99734.00;;;;4993983;27;110884;-73
2022/01/10 00:12:17;;;;;;;10.30;5.80;;;3.90;99.90;3.70;99740.00;;;;4993608;27;109708;-72
2022/01/10 00:14:43;;;;;;;9.07;5.30;;;3.90;99.90;3.70;99751.00;;;;4994490;27;117242;-72
2022/01/10 00:17:09;;;;;;;8.97;5.07;;;3.80;99.90;3.70;99755.00;;;;4994869;28;95299;-72
2022/01/10 00:19:34;;;;;;;7.97;5.10;;;3.90;99.90;3.70;99750.00;;;;4975033;28;110508;-76
2022/01/10 00:22:00;;;;;;;7.60;4.90;;;3.90;99.90;3.70;99753.00;;;;4975677;28;109117;-74
2022/01/10 00:24:26;;;;;;;6.67;4.80;;;3.90;99.90;3.70;99766.00;;;;4992747;27;118630;-74
2022/01/10 00:26:51;;;;;;;6.80;4.60;;;3.90;99.90;3.70;99764.00;;;;4993469;27;115186;-76
2022/01/10 00:29:17;;;;;;;9.53;6.03;;;3.90;99.90;3.70;99777.00;;;;4993305;27;110217;-74
2022/01/10 00:31:43;;;;;;;11.60;5.37;;;3.90;99.90;3.70;99774.00;;;;4975641;28;87862;-74
2022/01/10 00:34:10;;;;;;;10.07;5.47;;;4.60;99.90;3.70;99775.00;;;;4994049;27;116817;-75
2022/01/10 00:36:35;;;;;;;10.00;5.37;;;3.90;99.90;3.70;99785.00;;;;4994515;28;88240;-74
2022/01/10 00:39:02;;;;;;;10.07;5.27;;;3.90;99.90;3.70;99790.00;;;;4992844;27;96204;-75
2022/01/10 00:41:28;;;;;;;8.90;4.87;;;3.90;99.90;3.70;99799.00;;;;4994460;28;92201;-73
2022/01/10 00:43:53;;;;;;;8.50;4.87;;;3.90;99.90;3.70;99795.00;;;;5007607;27;115659;-73
2022/01/10 00:46:20;;;;;;;9.50;5.00;;;3.90;99.90;3.70;99808.00;;;;5013454;27;110274;-72
2022/01/10 00:48:45;;;;;;;6.97;5.30;;;3.90;99.90;3.70;99817.00;;;;5013619;27;88803;-72
2022/01/10 00:51:11;;;;;;;18.57;5.73;;;3.80;99.90;3.70;99820.00;;;;5014283;27;107862;-72
2022/01/10 00:53:37;;;;;;;6.47;4.57;;;3.80;99.90;3.70;99827.00;;;;4991155;28;87973;-72
2022/01/10 00:56:08;;;;;;;7.77;4.57;;;3.90;99.90;3.70;99830.00;;;;4975038;28;117270;-74
2022/01/10 00:58:36;;;;;;;8.20;5.37;;;3.90;99.90;3.70;99840.00;;;;4993080;27;87692;-73
2022/01/10 01:01:03;;;;;;;7.53;5.00;;;3.90;99.90;3.70;99848.00;;;;4975864;28;87873;-72
2022/01/10 01:03:29;;;;;;;9.00;4.83;;;3.90;99.90;3.70;99845.00;;;;4994401;27;88964;-71
2022/01/10 01:05:55;;;;;;;8.63;5.40;;;3.90;99.90;3.70;99844.00;;;;4996735;28;107128;-71
2022/01/10 01:08:21;;;;;;;10.90;5.57;;;3.90;99.90;3.70;99843.00;;;;4996859;27;87778;-72
2022/01/10 01:24:05;;;;;;;7.17;4.30;;;3.90;99.90;3.70;99873.00;;;;4989876;27;87894;-73
2022/01/10 01:26:38;;;;;;;7.40;4.53;;;3.90;99.90;3.70;99870.00;;;;4997062;27;88350;-72
2022/01/10 01:29:07;;;;;;;7.27;4.77;;;4.00;99.90;3.80;99879.00;;;;4997329;28;87638;-73
2022/01/10 01:31:33;;;;;;;9.17;4.57;;;4.00;99.90;3.80;99884.00;;;;4998061;28;86685;-70
2022/01/10 01:33:59;;;;;;;8.40;5.10;;;3.90;99.90;3.80;99895.00;;;;4996308;27;89384;-70
2022/01/10 01:36:26;;;;;;;6.80;4.87;;;4.00;99.90;3.80;99882.00;;;;4995101;27;89828;-70
2022/01/10 01:38:53;;;;;;;9.37;4.87;;;4.00;99.90;3.80;99893.00;;;;5011306;27;88607;-71
2022/01/10 01:43:48;;;;;;;7.83;5.03;;;4.20;99.90;3.80;99913.00;;;;4979042;28;105491;-70
2022/01/10 01:46:14;;;;;;;9.13;4.83;;;4.00;99.90;3.90;99907.00;;;;4996508;27;104568;-71
2022/01/10 01:48:40;;;;;;;10.33;4.47;;;4.10;99.90;3.90;99914.00;;;;4996173;27;87865;-71
2022/01/10 01:51:06;;;;;;;6.83;4.43;;;4.00;99.90;3.90;99900.00;;;;4997210;28;91610;-71
2022/01/10 01:53:33;;;;;;;10.27;5.10;;;4.40;99.90;3.90;99918.00;;;;4997439;27;95129;-71
2022/01/10 01:55:59;;;;;;;8.17;5.13;;;4.10;99.90;3.90;99916.00;;;;4997237;27;89093;-71
2022/01/10 01:58:26;;;;;;;6.17;4.87;;;4.10;99.90;3.90;99917.00;;;;4995377;27;94779;-73
2022/01/10 02:00:52;;;;;;;8.80;4.57;;;4.10;99.90;3.90;99921.00;;;;4997028;27;87736;-73
2022/01/10 02:03:19;;;;;;;9.20;5.17;;;4.10;99.90;3.90;99930.00;;;;4995552;27;102566;-73
2022/01/10 02:05:44;;;;;;;6.80;3.60;;;4.10;99.90;3.90;99940.00;;;;4993929;28;117046;-73
2022/01/10 02:08:10;;;;;;;8.37;5.40;;;4.10;99.90;3.90;99937.00;;;;5003618;27;110389;-73
2022/01/10 02:10:37;;;;;;;6.87;4.67;;;4.10;99.90;3.90;99937.00;;;;4998680;27;87868;-73
2022/01/10 02:13:05;;;;;;;14.63;5.10;;;4.10;99.90;3.90;99953.00;;;;5015462;27;88938;-73
2022/01/10 02:15:46;;;;;;;8.90;5.23;;;4.10;99.90;3.90;99947.00;;;;4992949;28;116685;-73
2022/01/10 02:18:17;;;;;;;10.43;4.77;;;4.30;99.90;3.90;99959.00;;;;4980037;28;87938;-73
2022/01/10 02:20:43;;;;;;;10.20;5.63;;;4.00;99.90;3.90;99951.00;;;;5010666;27;86853;-73
2022/01/10 02:23:09;;;;;;;10.00;4.83;;;4.10;99.90;3.90;99966.00;;;;4981819;28;88106;-73
2022/01/10 02:25:35;;;;;;;11.00;5.13;;;4.30;99.90;3.80;99968.00;;;;4995457;27;115635;-73
2022/01/10 02:28:01;;;;;;;8.00;5.53;;;4.10;99.90;3.90;99966.00;;;;4996358;28;88808;-74
2022/01/10 02:30:27;;;;;;;7.70;4.77;;;4.10;99.90;3.90;99969.00;;;;4996153;28;106919;-74
2022/01/10 02:32:57;;;;;;;6.87;4.20;;;4.10;99.90;3.90;99974.00;;;;4980216;28;118031;-73
2022/01/10 02:35:30;;;;;;;7.63;4.57;;;4.00;99.90;3.90;99986.00;;;;4996660;28;88581;-73
2022/01/10 02:37:56;;;;;;;8.43;5.17;;;4.00;99.90;3.90;99992.00;;;;4978026;28;87977;-73
2022/01/10 02:40:25;;;;;;;10.40;5.13;;;4.10;99.90;3.90;99996.00;;;;4978462;28;87969;-74
2022/01/10 02:42:52;;;;;;;9.33;5.37;;;4.10;99.90;3.90;99990.00;;;;5009836;27;89223;-73
2022/01/10 02:45:19;;;;;;;11.00;5.67;;;4.10;99.90;3.80;99993.00;;;;4997415;27;88490;-72
2022/01/10 02:47:45;;;;;;;9.17;5.50;;;4.10;99.90;3.80;100000.00;;;;4992441;28;92115;-73
2022/01/10 02:50:11;;;;;;;10.77;5.33;;;4.00;99.90;3.80;100005.00;;;;4960409;28;94877;-73
2022/01/10 02:52:38;;;;;;;10.83;5.47;;;4.10;99.90;3.80;99998.00;;;;5010744;27;93778;-72
2022/01/10 02:55:06;;;;;;;6.77;4.33;;;4.00;99.90;3.80;100008.00;;;;5015945;27;88149;-72
2022/01/10 02:57:33;;;;;;;9.90;5.87;;;4.00;99.90;3.80;100013.00;;;;5015850;27;87867;-72
2022/01/10 03:00:05;;;;;;;9.43;5.10;;;4.00;99.90;3.80;100015.00;;;;5016211;27;87887;-71
2022/01/10 03:02:33;;;;;;;9.90;5.53;;;4.00;99.90;3.80;100028.00;;;;5014543;27;94529;-71
2022/01/10 03:04:59;;;;;;;8.47;4.37;;;4.00;99.90;3.80;100023.00;;;;5016381;27;88186;-70
2022/01/10 03:07:25;;;;;;;13.63;5.87;;;4.00;99.90;3.80;100029.00;;;;5014878;27;110194;-72
2022/01/10 03:09:51;;;;;;;8.80;5.80;;;4.00;99.90;3.80;100032.00;;;;5010184;27;86970;-72
2022/01/10 03:12:17;;;;;;;16.00;6.27;;;4.00;99.90;3.80;100024.00;;;;4994367;27;116957;-72
2022/01/10 03:14:44;;;;;;;11.83;6.03;;;4.00;99.90;3.80;100038.00;;;;4995790;27;87863;-73
2022/01/10 03:17:11;;;;;;;16.17;5.93;;;4.00;99.90;3.80;100034.00;;;;4994668;27;88793;-75
2022/01/10 03:19:41;;;;;;;12.67;6.30;;;3.90;99.90;3.80;100037.00;;;;4995577;28;87727;-71
2022/01/10 03:22:08;;;;;;;10.67;6.50;;;4.00;99.90;3.80;100045.00;;;;4995559;27;88531;-72
2022/01/10 03:24:36;;;;;;;9.73;6.13;;;3.90;99.90;3.70;100041.00;;;;4981437;28;87855;-72
2022/01/10 03:27:02;;;;;;;14.23;5.63;;;4.10;99.90;3.70;100045.00;;;;4994135;27;87732;-72
2022/01/10 03:29:28;;;;;;;11.50;5.77;;;4.00;99.90;3.70;100049.00;;;;4976433;28;87954;-73
2022/01/10 03:31:54;;;;;;;9.10;5.80;;;3.90;99.90;3.70;100055.00;;;;4975701;28;118159;-72
2022/01/10 03:34:20;;;;;;;11.03;6.37;;;3.90;99.90;3.70;100062.00;;;;5013685;27;87995;-73
2022/01/10 03:36:46;;;;;;;7.90;5.77;;;3.90;99.90;3.70;100059.00;;;;5014891;27;87838;-72
2022/01/10 03:39:13;;;;;;;15.60;6.03;;;2.70;99.90;3.70;100058.00;;;;4999001;27;87695;-72
2022/01/10 03:41:40;;;;;;;7.33;5.13;;;3.90;99.90;3.70;100063.00;;;;5011441;27;89637;-73
2022/01/10 03:44:07;;;;;;;8.63;5.80;;;4.00;99.90;3.70;100079.00;;;;4995305;27;91030;-73
2022/01/10 03:46:36;;;;;;;13.00;7.03;;;4.00;99.90;3.70;100078.00;;;;5008166;27;87935;-73
2022/01/10 03:49:04;;;;;;;12.37;6.67;;;3.90;99.90;3.70;100077.00;;;;4994725;28;88128;-73
2022/01/10 03:51:30;;;;;;;12.00;6.13;;;3.90;99.90;3.70;100088.00;;;;4976312;28;88176;-73
2022/01/10 03:53:56;;;;;;;10.37;6.67;;;4.40;99.90;3.70;100097.00;;;;4992819;27;102851;-74
2022/01/10 03:56:24;;;;;;;7.57;5.73;;;3.90;99.90;3.70;100094.00;;;;4980477;28;93626;-74
2022/01/10 03:58:50;;;;;;;11.07;5.30;;;3.90;99.90;3.70;100099.00;;;;4994068;27;90055;-74
2022/01/10 04:01:16;;;;;;;14.00;6.87;;;3.90;99.90;3.70;100117.00;;;;4993285;28;117512;-75
2022/01/10 04:03:42;;;;;;;10.37;5.67;;;4.00;99.90;3.70;100117.00;;;;4994350;27;89645;-75
2022/01/10 04:06:09;;;;;;;9.43;6.17;;;3.90;99.90;3.70;100109.00;;;;5001134;27;89096;-74
2022/01/10 04:08:35;;;;;;;10.27;5.63;;;4.00;99.90;3.70;100123.00;;;;5013207;27;87773;-75
2022/01/10 04:11:03;;;;;;;8.33;5.70;;;3.90;99.90;3.70;100131.00;;;;4995983;27;90382;-74
2022/01/10 04:13:28;;;;;;;10.80;6.13;;;4.00;99.90;3.70;100136.00;;;;4991111;28;87921;-75
2022/01/10 04:15:54;;;;;;;6.90;5.13;;;3.90;99.90;3.70;100137.00;;;;4958505;28;111882;-73
2022/01/10 04:18:20;;;;;;;13.83;6.50;;;3.90;99.90;3.70;100149.00;;;;5002661;27;99019;-71
2022/01/10 04:20:47;;;;;;;9.17;5.30;;;4.00;99.90;3.70;100157.00;;;;4994311;27;95849;-73
2022/01/10 04:23:15;;;;;;;8.57;6.20;;;4.00;99.90;3.70;100160.00;;;;4994298;27;98820;-73
2022/01/10 04:25:41;;;;;;;11.60;6.37;;;4.00;99.90;3.70;100154.00;;;;4993652;27;98032;-73
2022/01/10 04:28:07;;;;;;;9.53;5.47;;;3.90;99.90;3.70;100156.00;;;;4979704;28;108651;-76
2022/01/10 04:30:33;;;;;;;11.33;5.83;;;4.00;99.90;3.70;100160.00;;;;4992897;28;107064;-72
2022/01/10 04:33:00;;;;;;;8.90;5.40;;;3.90;99.90;3.70;100171.00;;;;4973290;28;89792;-73
2022/01/10 04:35:28;;;;;;;11.90;6.83;;;4.40;99.90;3.70;100170.00;;;;5010625;27;87960;-73
2022/01/10 04:37:54;;;;;;;12.77;6.03;;;3.90;99.90;3.70;100187.00;;;;5007802;27;87812;-74
2022/01/10 04:40:20;;;;;;;13.50;6.47;;;3.90;99.90;3.70;100184.00;;;;4978195;27;89329;-73
2022/01/10 04:42:46;;;;;;;14.27;7.40;;;3.90;99.90;3.70;100179.00;;;;4999613;27;89055;-74
2022/01/10 04:45:12;;;;;;;9.13;5.50;;;3.90;99.90;3.80;100187.00;;;;4997577;28;92261;-73
2022/01/10 04:47:38;;;;;;;9.80;5.40;;;4.00;99.90;3.70;100193.00;;;;4994885;28;87176;-73
2022/01/10 04:52:49;;;;;;;10.07;6.30;;;4.00;99.90;3.70;100183.00;;;;4998016;27;88177;-76
2022/01/10 04:55:15;;;;;;;10.10;6.37;;;4.00;99.90;3.80;100199.00;;;;4988037;28;88787;-73
2022/01/10 04:57:41;;;;;;;8.57;5.77;;;3.90;99.90;3.80;100203.00;;;;5002067;27;87869;-73
2022/01/10 05:00:12;;;;;;;10.80;6.20;;;4.00;99.90;3.80;100209.00;;;;5017290;27;90527;-71
2022/01/10 05:02:39;;;;;;;9.47;5.80;;;4.00;99.90;3.80;100208.00;;;;5008144;27;88889;-72
2022/01/10 05:05:05;;;;;;;10.10;5.80;;;4.00;99.90;3.80;100210.00;;;;4997206;28;87542;-72
2022/01/10 05:07:31;;;;;;;8.40;5.73;;;4.00;99.90;3.80;100209.00;;;;4996265;27;94472;-72
2022/01/10 05:09:58;;;;;;;10.97;5.50;;;4.00;99.90;3.80;100231.00;;;;4978467;28;87844;-72
2022/01/10 05:12:25;;;;;;;10.93;6.87;;;4.10;99.90;3.80;100227.00;;;;4997512;27;88816;-72
2022/01/10 05:14:51;;;;;;;9.40;5.37;;;4.00;99.90;3.80;100231.00;;;;4997345;27;87833;-72
2022/01/10 05:17:19;;;;;;;12.50;5.67;;;4.00;99.90;3.80;100239.00;;;;4997665;27;87783;-72
2022/01/10 05:19:45;;;;;;;16.47;6.30;;;4.10;99.90;3.80;100249.00;;;;4996918;27;88986;-72
2022/01/10 05:22:11;;;;;;;14.73;6.43;;;4.50;99.90;3.80;100255.00;;;;4994913;28;89262;-72
2022/01/10 05:24:37;;;;;;;10.20;6.57;;;4.00;99.90;3.80;100259.00;;;;4991477;27;87935;-72
2022/01/10 05:27:04;;;;;;;11.63;6.13;;;4.10;99.90;3.80;100261.00;;;;4996735;27;106740;-73
2022/01/10 05:29:30;;;;;;;9.23;5.87;;;4.10;99.90;3.80;100265.00;;;;4996425;27;88760;-73
2022/01/10 05:31:55;;;;;;;11.90;5.87;;;4.10;99.90;3.80;100265.00;;;;5015228;27;107532;-77
2022/01/10 05:34:21;;;;;;;13.50;6.63;;;4.10;99.90;3.80;100276.00;;;;4987741;28;91681;-76
2022/01/10 05:36:47;;;;;;;9.73;5.77;;;4.20;99.90;3.80;100281.00;;;;4997203;27;91222;-77
2022/01/10 05:39:13;;;;;;;11.30;6.53;;;4.30;99.90;3.80;100279.00;;;;4993223;28;111623;-77
2022/01/10 05:41:39;;;;;;;11.93;6.07;;;4.10;99.90;3.90;100284.00;;;;4996279;28;95259;-76
2022/01/10 05:44:05;;;;;;;10.30;6.33;;;4.10;99.90;3.90;100283.00;;;;4988169;28;88725;-77
2022/01/10 05:46:34;;;;;;;10.47;6.33;;;4.30;99.90;3.90;100296.00;;;;4995575;28;99232;-77
2022/01/10 05:49:01;;;;;;;13.37;6.90;;;4.10;99.90;3.90;100291.00;;;;4988906;27;88471;-75
2022/01/10 05:51:34;;;;;;;11.97;6.67;;;4.20;99.90;3.90;100295.00;;;;4995111;27;87993;-74
2022/01/10 05:54:05;;;;;;;15.97;7.53;;;4.00;99.90;3.90;100301.00;;;;4997279;27;87572;-74
2022/01/10 05:56:32;;;;;;;10.70;6.37;;;4.10;99.90;3.90;100307.00;;;;4996907;27;87768;-74
2022/01/10 05:59:00;;;;;;;14.07;6.90;;;4.00;99.90;3.90;100320.00;;;;4996475;27;88240;-74
2022/01/10 06:01:26;;;;;;;11.87;7.67;;;4.10;99.90;3.90;100313.00;;;;4977983;28;87920;-74
2022/01/10 06:03:51;;;;;;;11.57;6.50;;;4.10;99.90;3.90;100325.00;;;;4996001;27;87792;-75
2022/01/10 06:06:17;;;;;;;12.90;6.67;;;4.00;99.90;3.90;100335.00;;;;4977143;28;109224;-75
2022/01/10 06:08:43;;;;;;;11.80;6.53;;;4.10;99.90;3.90;100338.00;;;;4994412;28;118796;-75
2022/01/10 06:11:09;;;;;;;12.93;7.20;;;4.10;99.90;3.90;100344.00;;;;5011891;27;90569;-76
2022/01/10 06:13:34;;;;;;;11.80;6.77;;;4.10;99.90;3.90;100334.00;;;;4997510;27;110204;-75
2022/01/10 06:16:00;;;;;;;10.87;6.30;;;4.10;99.90;3.90;100347.00;;;;4994986;28;109974;-76
2022/01/10 06:18:26;;;;;;;10.40;6.70;;;4.10;99.90;3.90;100361.00;;;;4992312;28;90290;-76
2022/01/10 06:20:51;;;;;;;14.43;7.37;;;4.10;99.90;3.90;100362.00;;;;4994231;27;117612;-75
2022/01/10 06:23:17;;;;;;;12.83;6.63;;;4.00;99.90;3.90;100368.00;;;;4996285;27;87774;-75
2022/01/10 06:25:44;;;;;;;16.43;7.53;;;4.40;99.90;3.90;100379.00;;;;4977299;27;87071;-75
2022/01/10 06:28:09;;;;;;;12.47;7.20;;;4.10;99.90;3.90;100381.00;;;;4992885;28;88331;-74
2022/01/10 06:30:35;;;;;;;13.83;8.10;;;4.10;99.90;3.90;100383.00;;;;4977070;28;100335;-76
2022/01/10 06:33:01;;;;;;;14.03;7.60;;;4.10;99.90;3.90;100380.00;;;;5011112;27;110605;-74
2022/01/10 06:35:27;;;;;;;15.90;8.40;;;4.00;99.90;3.90;100392.00;;;;4996224;27;109686;-73
2022/01/10 06:37:53;;;;;;;10.27;6.17;;;4.10;99.90;3.80;100394.00;;;;5007743;27;117049;-76
2022/01/10 06:40:20;;;;;;;17.67;7.40;;;4.10;99.90;3.80;100397.00;;;;4976284;28;88062;-78
2022/01/10 06:42:46;;;;;;;11.20;6.57;;;4.00;99.90;3.80;100408.00;;;;4977595;28;88062;-76
2022/01/10 06:45:14;;;;;;;14.77;8.07;;;4.10;99.90;3.80;100419.00;;;;4994473;28;108953;-75
2022/01/10 06:47:40;;;;;;;16.30;8.17;;;4.00;99.90;3.80;100420.00;;;;4999132;27;88722;-74
2022/01/10 06:50:07;;;;;;;14.37;7.90;;;4.00;99.90;3.80;100429.00;;;;4996532;27;88077;-76
2022/01/10 06:52:33;;;;;;;15.40;8.37;;;4.00;99.90;3.80;100431.00;;;;4985215;27;88026;-75
2022/01/10 06:54:59;;;;;;;14.70;8.53;;;4.00;99.90;3.80;100440.00;;;;5005223;27;87865;-75
2022/01/10 06:57:25;;;;;;;13.03;7.50;;;4.10;99.90;3.80;100438.00;;;;5011615;27;88863;-76
2022/01/10 06:59:52;;;;;;;17.07;7.27;;;4.10;99.90;3.90;100443.00;;;;4976267;28;90385;-77
2022/01/10 07:02:18;;;;;;;21.07;9.73;;;4.10;99.90;3.90;100457.00;;;;4977488;27;88306;-77
2022/01/10 07:04:44;;;;;;;20.43;7.40;;;4.10;99.90;3.90;100455.00;;;;4994493;27;95843;-77
2022/01/10 07:07:09;;;;;;;22.97;8.67;;;4.10;99.90;3.90;100471.00;;;;4994680;27;88121;-78
2022/01/10 07:09:36;;;;;;;16.60;7.67;;;4.10;99.90;3.90;100476.00;;;;4994289;28;101643;-76
2022/01/10 07:12:03;;;;;;;15.27;7.93;;;4.00;99.90;3.90;100482.00;;;;4995112;28;87841;-76
2022/01/10 07:14:31;;;;;;;18.00;8.00;;;4.10;99.90;4.00;100484.00;;;;4987751;28;88942;-79
2022/01/10 07:16:57;;;;;;;13.37;7.33;;;4.10;99.90;4.00;100498.00;;;;4974683;28;88285;-79
2022/01/10 07:19:23;;;;;;;21.63;9.43;;;4.10;99.90;4.00;100496.00;;;;4989930;28;88090;-80
2022/01/10 07:21:50;;;;;;;14.97;8.10;;;4.20;99.90;4.00;100503.00;;;;4992179;28;88717;-79
2022/01/10 07:24:16;;;;;;;18.50;9.07;;;4.20;99.90;4.00;100500.00;;;;4994063;28;87765;-77
2022/01/10 07:26:42;;;;;;;20.23;9.00;;;4.20;99.90;4.00;100516.00;;;;4989333;28;87735;-78
2022/01/10 07:29:08;;;;;;;16.27;7.77;;;4.30;99.90;4.00;100515.00;;;;4974204;28;102650;-77
2022/01/10 07:31:36;;;;;;;15.33;7.30;;;5.40;99.90;4.10;100521.00;;;;4974975;28;87764;-79
2022/01/10 07:34:03;;;;;;;19.00;9.13;;;4.30;99.90;4.10;100523.00;;;;4988710;28;91543;-80
2022/01/10 07:36:29;;;;;;;22.60;9.10;;;4.20;99.90;4.10;100529.00;;;;4955765;28;89005;-79
2022/01/10 07:38:55;;;;;;;14.73;8.63;;;4.30;99.90;4.10;100534.00;;;;4988855;28;87849;-79
2022/01/10 07:41:20;;;;;;;16.00;8.00;;;4.30;99.90;4.10;100535.00;;;;4993677;28;87896;-79
2022/01/10 07:43:46;;;;;;;14.97;8.20;;;4.30;99.90;4.20;100550.00;;;;4970267;28;87759;-79
2022/01/10 07:46:12;;;;;;;15.47;6.93;;;4.30;99.90;4.20;100555.00;;;;4944622;28;90336;-78
2022/01/10 07:48:40;;;;;;;14.37;7.50;;;4.40;99.90;4.20;100557.00;;;;4971677;28;89346;-78
2022/01/10 07:51:09;;;;;;;19.50;8.63;;;4.40;99.90;4.30;100566.00;;;;4955295;28;94339;-78
2022/01/10 07:53:36;;;;;;;21.47;7.03;;;4.40;99.90;4.30;100575.00;;;;4973386;28;87823;-79
2022/01/10 07:56:04;;;;;;;22.53;8.77;;;4.50;99.90;4.30;100572.00;;;;4972206;28;88097;-79
2022/01/10 07:58:30;;;;;;;13.60;7.70;;;4.60;99.90;4.40;100576.00;;;;4971346;28;89691;-78
2022/01/10 08:00:57;;;;;;;12.00;7.37;;;4.50;99.90;4.40;100593.00;;;;4972351;28;90569;-78
2022/01/10 08:03:22;;;;;;;17.60;7.97;;;4.60;99.90;4.40;100587.00;;;;4962555;28;87018;-80
2022/01/10 08:05:48;;;;;;;16.63;7.23;;;4.60;99.90;4.40;100588.00;;;;4971468;28;90787;-79
2022/01/10 08:08:14;;;;;;;13.73;6.23;;;4.60;99.90;4.40;100598.00;;;;4980674;28;88639;-80
2022/01/10 08:10:40;;;;;;;14.47;7.77;;;4.60;99.90;4.40;100600.00;;;;4966095;28;100058;-79
2022/01/10 08:13:05;;;;;;;12.13;7.47;;;4.60;99.90;4.50;100600.00;;;;5006107;27;87942;-77
2022/01/10 08:15:31;;;;;;;15.47;8.00;;;4.70;99.90;4.40;100603.00;;;;4968928;28;116979;-79
2022/01/10 08:17:58;;;;;;;14.73;7.40;;;4.60;99.90;4.50;100622.00;;;;4971542;28;94560;-79
2022/01/10 08:20:24;;;;;;;11.67;7.40;;;4.70;99.90;4.50;100619.00;;;;4971713;28;92992;-80
2022/01/10 08:22:50;;;;;;;18.80;7.47;;;4.70;99.90;4.50;100619.00;;;;4974339;28;88000;-78
2022/01/10 08:25:16;;;;;;;18.67;7.33;;;4.70;99.90;4.50;100616.00;;;;4987531;28;88517;-78
2022/01/10 08:27:42;;;;;;;11.67;7.50;;;4.70;99.90;4.60;100623.00;;;;4970288;28;119943;-77
2022/01/10 08:30:08;;;;;;;24.57;8.77;;;4.70;99.90;4.60;100623.00;;;;4973460;28;87909;-76
2022/01/10 08:32:34;;;;;;;21.80;8.07;;;4.70;99.90;4.60;100642.00;;;;4970941;28;93824;-77
2022/01/10 08:35:00;;;;;;;19.87;7.20;;;4.80;99.90;4.60;100632.00;;;;4972694;28;89418;-79
2022/01/10 08:37:26;;;;;;;16.87;7.83;;;4.80;99.90;4.70;100644.00;;;;4970718;28;88924;-78
2022/01/10 08:39:52;;;;;;;18.13;7.33;;;4.80;99.90;4.70;100644.00;;;;4971507;28;87610;-78
2022/01/10 08:42:19;;;;;;;12.77;7.33;;;4.80;99.90;4.70;100647.00;;;;4975149;28;109307;-78
2022/01/10 08:44:45;;;;;;;16.90;7.03;;;4.80;99.90;4.70;100653.00;;;;4970597;28;99626;-75
2022/01/10 08:47:11;;;;;;;19.37;7.27;;;4.90;99.90;4.70;100655.00;;;;4953793;28;93956;-73
2022/01/10 08:49:38;;;;;;;16.03;7.27;;;4.90;99.90;4.70;100661.00;;;;4992465;28;96676;-73
2022/01/10 08:52:04;;;;;;;14.30;6.87;;;4.90;99.90;4.70;100671.00;;;;4984309;28;87034;-73
2022/01/10 08:54:31;;;;;;;17.50;7.17;;;4.90;99.90;4.70;100670.00;;;;4972191;28;88920;-73
2022/01/10 08:56:57;;;;;;;18.67;8.73;;;4.90;99.90;4.80;100680.00;;;;4971308;28;93002;-73
2022/01/10 08:59:23;;;;;;;16.37;8.03;;;4.90;99.90;4.80;100687.00;;;;4984348;28;95102;-74
2022/01/10 09:01:48;;;;;;;13.83;6.57;;;5.00;99.90;4.80;100683.00;;;;4993208;28;87810;-75
2022/01/10 09:04:16;;;;;;;13.67;7.33;;;4.90;99.90;4.80;100698.00;;;;4990348;28;91075;-74
2022/01/10 09:06:52;;;;;;;13.70;7.40;;;5.10;99.90;4.80;100707.00;;;;4991542;28;88092;-77
2022/01/10 09:09:19;;;;;;;18.20;7.53;;;5.10;99.90;4.90;100701.00;;;;4990968;28;88042;-75
2022/01/10 09:11:46;;;;;;;18.13;7.43;;;5.00;99.90;4.90;100702.00;;;;4990348;28;88519;-74
2022/01/10 09:14:12;;;;;;;12.87;7.17;;;5.10;99.90;4.90;100706.00;;;;4991522;28;103814;-75
2022/01/10 09:16:39;;;;;;;11.63;6.83;;;5.10;99.90;4.90;100708.00;;;;4971752;28;88075;-76
2022/01/10 09:19:05;;;;;;;11.47;6.67;;;5.10;99.90;5.00;100722.00;;;;4974579;28;88140;-74
2022/01/10 09:21:31;;;;;;;17.63;7.60;;;5.20;99.90;5.00;100719.00;;;;4992428;28;108938;-74
2022/01/10 09:23:57;;;;;;;12.73;7.00;;;5.20;99.90;5.10;100723.00;;;;4957592;28;100731;-75
2022/01/10 09:26:24;;;;;;;14.47;5.87;;;5.20;99.90;5.10;100735.00;;;;4939673;28;90872;-74
2022/01/10 09:28:51;;;;;;;13.83;6.60;;;5.30;99.90;5.20;100731.00;;;;4970097;28;87942;-74
2022/01/10 09:31:17;;;;;;;19.17;8.13;;;5.40;99.90;5.30;100737.00;;;;4966525;28;97724;-73
2022/01/10 09:33:43;;;;;;;15.70;6.47;;;5.50;99.90;5.30;100742.00;;;;4957569;28;88282;-73
2022/01/10 09:36:09;;;;;;;11.13;5.50;;;5.50;99.90;5.40;100749.00;;;;4977029;28;88354;-73
2022/01/10 09:38:36;;;;;;;12.00;7.10;;;5.60;99.90;5.50;100760.00;;;;4980496;28;110333;-72
2022/01/10 09:41:02;;;;;;;11.63;6.43;;;5.60;99.90;5.50;100755.00;;;;4960749;28;107418;-75
2022/01/10 09:43:28;;;;;;;10.73;5.87;;;5.60;99.90;5.60;100764.00;;;;4985141;28;88951;-73
2022/01/10 09:45:56;;;;;;;13.13;6.33;;;5.70;99.90;5.60;100763.00;;;;4976549;28;88816;-72
2022/01/10 09:48:22;;;;;;;9.30;6.20;;;5.70;99.90;5.70;100758.00;;;;4975433;28;88898;-73
2022/01/10 09:50:48;;;;;;;17.50;5.97;;;5.80;99.90;5.70;100783.00;;;;4975724;28;95877;-72
2022/01/10 09:53:17;;;;;;;11.07;6.10;;;5.80;99.90;5.70;100787.00;;;;4980139;28;104355;-72
2022/01/10 09:55:43;;;;;;;10.63;5.40;;;5.90;99.90;5.70;100788.00;;;;4969529;28;87890;-73
2022/01/10 09:58:09;;;;;;;15.50;5.93;;;5.90;99.90;5.70;100790.00;;;;4983777;28;91819;-73
2022/01/10 10:00:35;;;;;;;8.27;5.50;;;5.90;99.90;5.70;100794.00;;;;4996631;28;87838;-72
2022/01/10 10:03:01;;;;;;;11.43;5.53;;;6.40;99.90;5.70;100795.00;;;;4995139;28;97040;-72
2022/01/10 10:05:27;;;;;;;13.80;5.60;;;5.90;99.90;5.70;100791.00;;;;4996302;28;87149;-72
2022/01/10 10:07:53;;;;;;;8.23;4.97;;;5.90;99.90;5.70;100800.00;;;;4972411;28;87870;-72
2022/01/10 10:10:21;;;;;;;10.63;5.27;;;5.90;99.90;5.80;100807.00;;;;4976539;28;87683;-71
2022/01/10 10:12:50;;;;;;;15.73;5.67;;;5.90;99.90;5.80;100809.00;;;;4975542;28;90098;-71
2022/01/10 10:15:19;;;;;;;10.50;5.50;;;6.00;99.90;5.90;100806.00;;;;4992146;28;98173;-71
2022/01/10 10:17:46;;;;;;;15.17;5.40;;;6.00;99.90;5.90;100801.00;;;;4995337;27;88033;-72
2022/01/10 10:20:21;;;;;;;17.83;5.70;;;6.00;99.90;5.90;100814.00;;;;4996020;28;87704;-71
2022/01/10 10:22:49;;;;;;;15.03;5.97;;;6.10;99.90;6.00;100820.00;;;;4995796;27;89173;-71
2022/01/10 10:25:16;;;;;;;9.10;5.53;;;6.10;99.90;6.00;100829.00;;;;4995484;28;88069;-70
2022/01/10 10:27:45;;;;;;;12.57;5.90;;;6.10;99.90;6.00;100814.00;;;;4995826;27;87684;-71
2022/01/10 10:30:18;;;;;;;15.73;5.00;;;6.20;99.90;6.00;100825.00;;;;4996271;27;87111;-71
2022/01/10 10:32:44;;;;;;;13.03;5.50;;;6.20;99.90;6.10;100821.00;;;;4995833;27;103254;-71
2022/01/10 10:35:11;;;;;;;6.77;4.50;;;6.20;99.90;6.10;100823.00;;;;5005299;27;88190;-71
2022/01/10 10:37:40;;;;;;;12.03;4.73;;;6.20;99.90;6.10;100835.00;;;;5013908;27;97815;-70
2022/01/10 10:40:09;;;;;;;9.43;4.70;;;6.30;99.90;6.00;100837.00;;;;4987677;28;87826;-73
2022/01/10 10:42:38;;;;;;;8.50;4.50;;;6.20;99.90;6.00;100850.00;;;;4976974;28;88921;-70
2022/01/10 10:45:12;;;;;;;11.53;5.27;;;6.20;99.90;6.00;100847.00;;;;4977471;28;87786;-69
2022/01/10 10:47:42;;;;;;;6.23;4.77;;;6.20;99.90;6.10;100846.00;;;;4998011;27;87948;-72
2022/01/10 10:50:10;;;;;;;9.40;5.00;;;6.20;99.90;6.10;100857.00;;;;5015701;27;88046;-72
2022/01/10 10:52:39;;;;;;;16.53;5.47;;;6.20;99.90;6.10;100854.00;;;;4993040;28;88345;-73
2022/01/10 10:55:15;;;;;;;14.23;4.73;;;6.20;99.90;6.10;100862.00;;;;4977285;28;87864;-74
2022/01/10 10:57:43;;;;;;;11.77;4.47;;;6.20;99.90;6.10;100860.00;;;;4977575;28;87876;-71
2022/01/10 11:00:15;;;;;;;8.30;4.33;;;6.20;99.90;6.00;100874.00;;;;4995867;27;88062;-70
2022/01/10 11:02:42;;;;;;;8.73;5.03;;;6.20;99.90;6.00;100880.00;;;;4976656;28;89513;-71
2022/01/10 11:05:08;;;;;;;10.20;4.23;;;6.20;99.90;6.00;100880.00;;;;4995748;28;91921;-69
2022/01/10 11:07:35;;;;;;;7.93;4.43;;;6.20;99.90;6.00;100892.00;;;;4994812;27;87797;-70
2022/01/10 11:10:05;;;;;;;12.30;5.03;;;6.20;99.90;6.00;100888.00;;;;4996799;27;87917;-73
2022/01/10 11:12:35;;;;;;;7.57;4.90;;;6.20;99.90;6.00;100879.00;;;;4980812;28;88471;-73